This is the latest recevied weather packets stored in our database for station/object OE5OVL-13. If no packets are shown the sender has not sent any weather packets the latest 10 day(s).
| Time | Temp. | Humidity | Pressure | Rain* | Wind** | Luminosity | Snow |
|---|---|---|---|---|---|---|---|
| 1777346851 | 7.78° C | 67% | 714.8 hPa | 0 mm | - | - | - |
| 1777345940 | 7.78° C | 67% | 715.2 hPa | 0 mm | - | - | - |
| 1777345028 | 8.33° C | 66% | 715.3 hPa | 0 mm | - | - | - |
| 1777344117 | 7.78° C | 65% | 715.2 hPa | 0 mm | - | - | - |
| 1777342293 | 8.33° C | 64% | 715.5 hPa | 0 mm | - | - | - |
| 1777341381 | 8.33° C | 64% | 715.3 hPa | 0 mm | - | - | - |
| 1777340469 | 8.33° C | 63% | 715.6 hPa | 0 mm | - | - | - |
| 1777339557 | 8.33° C | 62% | 715.7 hPa | 0 mm | - | - | - |
| 1777338646 | 8.89° C | 61% | 715.9 hPa | 0 mm | - | - | - |
| 1777337734 | 8.89° C | 61% | 716.1 hPa | 0 mm | - | - | - |
| 1777336822 | 8.89° C | 60% | 716.5 hPa | 0 mm | - | - | - |
| 1777335910 | 9.44° C | 58% | 716.7 hPa | 0 mm | - | - | - |
| 1777334999 | 9.44° C | 58% | 716.9 hPa | 0 mm | - | - | - |
| 1777334087 | 10° C | 57% | 717.5 hPa | 0 mm | - | - | - |
| 1777333175 | 10.56° C | 55% | 717.8 hPa | 0 mm | - | - | - |
| 1777332263 | 10.56° C | 55% | 718 hPa | 0 mm | - | - | - |
| 1777331352 | 10.56° C | 55% | 718.2 hPa | 0 mm | - | - | - |
| 1777330440 | 11.11° C | 54% | 718.7 hPa | 0 mm | - | - | - |
| 1777329528 | 11.67° C | 53% | 719.2 hPa | 0 mm | - | - | - |
| 1777327705 | 12.22° C | 49% | 720.1 hPa | 0 mm | - | - | - |
| 1777325881 | 13.33° C | 46% | 721.1 hPa | 0 mm | - | - | - |
| 1777324969 | 13.89° C | 44% | 721.6 hPa | 0 mm | - | - | - |
| 1777324058 | 14.44° C | 40% | 722.6 hPa | 0 mm | - | - | - |
| 1777323146 | 14.44° C | 40% | 722.8 hPa | 0 mm | - | - | - |
| 1777322234 | 15° C | 40% | 723.1 hPa | 0 mm | - | - | - |
* Rain latest hour (hover to see other rain measurements)
** Current wind speed in m/s (hover to see current wind gust speed)